sensor_id;sensor_type;location;lat;lon;timestamp;temperature;humidity
38090;DHT22;23904;52.322;10.232;2023-04-24T00:02:03;13.90;99.90
38090;DHT22;23904;52.322;10.232;2023-04-24T00:04:29;13.90;99.90
38090;DHT22;23904;52.322;10.232;2023-04-24T00:06:57;13.80;99.90
38090;DHT22;23904;52.322;10.232;2023-04-24T00:09:25;13.80;99.90
38090;DHT22;23904;52.322;10.232;2023-04-24T00:11:51;13.80;99.90
38090;DHT22;23904;52.322;10.232;2023-04-24T00:14:16;13.80;99.90
38090;DHT22;23904;52.322;10.232;2023-04-24T00:16:42;13.70;99.90
38090;DHT22;23904;52.322;10.232;2023-04-24T00:19:08;13.70;99.90
38090;DHT22;23904;52.322;10.232;2023-04-24T00:21:33;13.70;99.90
38090;DHT22;23904;52.322;10.232;2023-04-24T00:23:59;13.70;99.90
38090;DHT22;23904;52.322;10.232;2023-04-24T00:26:25;13.60;99.90
38090;DHT22;23904;52.322;10.232;2023-04-24T00:28:50;13.50;99.90
38090;DHT22;23904;52.322;10.232;2023-04-24T00:31:16;13.50;99.90
38090;DHT22;23904;52.322;10.232;2023-04-24T00:33:41;13.50;99.90
38090;DHT22;23904;52.322;10.232;2023-04-24T00:36:07;13.50;99.90
38090;DHT22;23904;52.322;10.232;2023-04-24T00:38:32;13.50;99.90
38090;DHT22;23904;52.322;10.232;2023-04-24T00:40:58;13.40;99.90
38090;DHT22;23904;52.322;10.232;2023-04-24T00:43:24;13.40;99.90
38090;DHT22;23904;52.322;10.232;2023-04-24T00:45:49;13.30;99.90
38090;DHT22;23904;52.322;10.232;2023-04-24T00:48:16;13.30;99.90
38090;DHT22;23904;52.322;10.232;2023-04-24T00:50:41;13.30;99.90
38090;DHT22;23904;52.322;10.232;2023-04-24T00:53:07;13.20;99.90
38090;DHT22;23904;52.322;10.232;2023-04-24T00:55:33;13.20;99.90
38090;DHT22;23904;52.322;10.232;2023-04-24T00:57:59;13.20;99.90
38090;DHT22;23904;52.322;10.232;2023-04-24T01:00:25;13.20;99.90
38090;DHT22;23904;52.322;10.232;2023-04-24T01:02:51;13.20;99.90
38090;DHT22;23904;52.322;10.232;2023-04-24T01:05:18;13.20;99.90
38090;DHT22;23904;52.322;10.232;2023-04-24T01:07:45;13.20;99.90
38090;DHT22;23904;52.322;10.232;2023-04-24T01:10:14;13.20;99.90
38090;DHT22;23904;52.322;10.232;2023-04-24T01:12:40;13.20;99.90
38090;DHT22;23904;52.322;10.232;2023-04-24T01:15:06;13.10;99.90
38090;DHT22;23904;52.322;10.232;2023-04-24T01:17:33;13.20;99.90
38090;DHT22;23904;52.322;10.232;2023-04-24T01:19:59;13.20;99.90
38090;DHT22;23904;52.322;10.232;2023-04-24T01:22:26;13.10;99.90
38090;DHT22;23904;52.322;10.232;2023-04-24T01:24:53;13.10;99.90
38090;DHT22;23904;52.322;10.232;2023-04-24T01:27:19;13.10;99.90
38090;DHT22;23904;52.322;10.232;2023-04-24T01:29:45;12.90;99.90
38090;DHT22;23904;52.322;10.232;2023-04-24T01:32:12;12.80;99.90
38090;DHT22;23904;52.322;10.232;2023-04-24T01:34:38;12.80;99.90
38090;DHT22;23904;52.322;10.232;2023-04-24T01:37:04;12.80;99.90
38090;DHT22;23904;52.322;10.232;2023-04-24T01:39:30;12.70;99.90
38090;DHT22;23904;52.322;10.232;2023-04-24T01:41:56;12.70;99.90
38090;DHT22;23904;52.322;10.232;2023-04-24T01:44:23;12.70;99.90
38090;DHT22;23904;52.322;10.232;2023-04-24T01:46:48;12.70;99.90
38090;DHT22;23904;52.322;10.232;2023-04-24T01:49:14;12.60;99.90
38090;DHT22;23904;52.322;10.232;2023-04-24T01:51:39;12.70;99.90
38090;DHT22;23904;52.322;10.232;2023-04-24T01:54:05;12.60;99.90
38090;DHT22;23904;52.322;10.232;2023-04-24T01:56:33;12.60;99.90
38090;DHT22;23904;52.322;10.232;2023-04-24T01:59:00;12.50;99.90
38090;DHT22;23904;52.322;10.232;2023-04-24T02:01:33;12.50;99.90
38090;DHT22;23904;52.322;10.232;2023-04-24T02:04:01;12.50;99.90
38090;DHT22;23904;52.322;10.232;2023-04-24T02:06:27;12.40;99.90
38090;DHT22;23904;52.322;10.232;2023-04-24T02:08:57;12.40;99.90
38090;DHT22;23904;52.322;10.232;2023-04-24T02:11:25;12.40;99.90
38090;DHT22;23904;52.322;10.232;2023-04-24T02:13:52;12.40;99.90
38090;DHT22;23904;52.322;10.232;2023-04-24T02:16:18;12.40;99.90
38090;DHT22;23904;52.322;10.232;2023-04-24T02:18:44;12.40;99.90
38090;DHT22;23904;52.322;10.232;2023-04-24T02:21:10;12.40;99.90
38090;DHT22;23904;52.322;10.232;2023-04-24T02:23:36;12.40;99.90
38090;DHT22;23904;52.322;10.232;2023-04-24T02:26:01;12.40;99.90
38090;DHT22;23904;52.322;10.232;2023-04-24T02:28:27;12.30;99.90
38090;DHT22;23904;52.322;10.232;2023-04-24T02:30:53;12.30;99.90
38090;DHT22;23904;52.322;10.232;2023-04-24T02:33:18;12.30;99.90
38090;DHT22;23904;52.322;10.232;2023-04-24T02:35:44;12.30;99.90
38090;DHT22;23904;52.322;10.232;2023-04-24T02:38:09;12.30;99.90
38090;DHT22;23904;52.322;10.232;2023-04-24T02:40:35;12.20;99.90
38090;DHT22;23904;52.322;10.232;2023-04-24T02:43:00;12.20;99.90
38090;DHT22;23904;52.322;10.232;2023-04-24T02:45:26;12.10;99.90
38090;DHT22;23904;52.322;10.232;2023-04-24T02:47:51;12.10;99.90
38090;DHT22;23904;52.322;10.232;2023-04-24T02:50:17;12.10;99.90
38090;DHT22;23904;52.322;10.232;2023-04-24T02:52:43;12.00;99.90
38090;DHT22;23904;52.322;10.232;2023-04-24T02:55:09;12.00;99.90
38090;DHT22;23904;52.322;10.232;2023-04-24T02:57:35;12.00;99.90
38090;DHT22;23904;52.322;10.232;2023-04-24T03:00:00;12.00;99.90
38090;DHT22;23904;52.322;10.232;2023-04-24T03:02:26;12.10;99.90
38090;DHT22;23904;52.322;10.232;2023-04-24T03:04:51;12.00;99.90
38090;DHT22;23904;52.322;10.232;2023-04-24T03:07:17;11.80;99.90
38090;DHT22;23904;52.322;10.232;2023-04-24T03:09:46;11.80;99.90
38090;DHT22;23904;52.322;10.232;2023-04-24T03:12:12;11.80;99.90
38090;DHT22;23904;52.322;10.232;2023-04-24T03:14:38;11.80;99.90
38090;DHT22;23904;52.322;10.232;2023-04-24T03:17:03;11.80;99.90
38090;DHT22;23904;52.322;10.232;2023-04-24T03:19:30;11.90;99.90
38090;DHT22;23904;52.322;10.232;2023-04-24T03:21:56;11.80;99.90
38090;DHT22;23904;52.322;10.232;2023-04-24T03:24:21;11.90;99.90
38090;DHT22;23904;52.322;10.232;2023-04-24T03:26:47;11.80;99.90
38090;DHT22;23904;52.322;10.232;2023-04-24T03:29:13;11.90;99.90
38090;DHT22;23904;52.322;10.232;2023-04-24T03:31:38;11.90;99.90
38090;DHT22;23904;52.322;10.232;2023-04-24T03:34:04;11.90;99.90
38090;DHT22;23904;52.322;10.232;2023-04-24T03:36:30;11.80;99.90
38090;DHT22;23904;52.322;10.232;2023-04-24T03:38:56;11.80;99.90
38090;DHT22;23904;52.322;10.232;2023-04-24T03:41:21;11.70;99.90
38090;DHT22;23904;52.322;10.232;2023-04-24T03:43:48;11.70;99.90
38090;DHT22;23904;52.322;10.232;2023-04-24T03:46:13;11.60;99.90
38090;DHT22;23904;52.322;10.232;2023-04-24T03:48:39;11.70;99.90
38090;DHT22;23904;52.322;10.232;2023-04-24T03:51:04;11.60;99.90
38090;DHT22;23904;52.322;10.232;2023-04-24T03:53:30;11.60;99.90
38090;DHT22;23904;52.322;10.232;2023-04-24T03:55:56;11.60;99.90
38090;DHT22;23904;52.322;10.232;2023-04-24T03:58:21;11.60;99.90
38090;DHT22;23904;52.322;10.232;2023-04-24T04:00:46;11.70;99.90
38090;DHT22;23904;52.322;10.232;2023-04-24T04:03:13;11.70;99.90
38090;DHT22;23904;52.322;10.232;2023-04-24T04:05:40;11.60;99.90
38090;DHT22;23904;52.322;10.232;2023-04-24T04:08:05;11.60;99.90
38090;DHT22;23904;52.322;10.232;2023-04-24T04:10:31;11.50;99.90
38090;DHT22;23904;52.322;10.232;2023-04-24T04:12:57;11.60;99.90
38090;DHT22;23904;52.322;10.232;2023-04-24T04:15:23;11.50;99.90
38090;DHT22;23904;52.322;10.232;2023-04-24T04:17:48;11.40;99.90
38090;DHT22;23904;52.322;10.232;2023-04-24T04:20:14;11.40;99.90
38090;DHT22;23904;52.322;10.232;2023-04-24T04:22:40;11.40;99.90
38090;DHT22;23904;52.322;10.232;2023-04-24T04:25:06;11.40;99.90
38090;DHT22;23904;52.322;10.232;2023-04-24T04:27:32;11.40;99.90
38090;DHT22;23904;52.322;10.232;2023-04-24T04:29:58;11.40;99.90
38090;DHT22;23904;52.322;10.232;2023-04-24T04:32:28;11.40;99.90
38090;DHT22;23904;52.322;10.232;2023-04-24T04:34:53;11.50;99.90
38090;DHT22;23904;52.322;10.232;2023-04-24T04:37:19;11.40;99.90
38090;DHT22;23904;52.322;10.232;2023-04-24T04:39:44;11.40;99.90
38090;DHT22;23904;52.322;10.232;2023-04-24T04:42:10;11.40;99.90
38090;DHT22;23904;52.322;10.232;2023-04-24T04:44:35;11.40;99.90
38090;DHT22;23904;52.322;10.232;2023-04-24T04:47:02;11.50;99.90
38090;DHT22;23904;52.322;10.232;2023-04-24T04:49:31;11.50;99.90
38090;DHT22;23904;52.322;10.232;2023-04-24T04:51:57;11.50;99.90
38090;DHT22;23904;52.322;10.232;2023-04-24T04:54:23;11.60;99.90
38090;DHT22;23904;52.322;10.232;2023-04-24T04:56:52;11.60;99.90
38090;DHT22;23904;52.322;10.232;2023-04-24T04:59:17;11.70;99.90
38090;DHT22;23904;52.322;10.232;2023-04-24T05:01:43;11.80;99.90
38090;DHT22;23904;52.322;10.232;2023-04-24T05:04:08;11.80;99.90
38090;DHT22;23904;52.322;10.232;2023-04-24T05:06:34;11.90;99.90
38090;DHT22;23904;52.322;10.232;2023-04-24T05:08:59;11.90;99.90
38090;DHT22;23904;52.322;10.232;2023-04-24T05:11:25;11.90;99.90
38090;DHT22;23904;52.322;10.232;2023-04-24T05:13:50;11.90;99.90
38090;DHT22;23904;52.322;10.232;2023-04-24T05:16:16;12.00;99.90
38090;DHT22;23904;52.322;10.232;2023-04-24T05:18:41;12.20;99.90
38090;DHT22;23904;52.322;10.232;2023-04-24T05:21:07;12.30;99.90
38090;DHT22;23904;52.322;10.232;2023-04-24T05:23:32;12.20;99.90
38090;DHT22;23904;52.322;10.232;2023-04-24T05:25:58;12.20;99.90
38090;DHT22;23904;52.322;10.232;2023-04-24T05:28:23;12.20;99.90
38090;DHT22;23904;52.322;10.232;2023-04-24T05:30:53;12.20;99.90
38090;DHT22;23904;52.322;10.232;2023-04-24T05:33:21;12.20;99.90
38090;DHT22;23904;52.322;10.232;2023-04-24T05:35:47;12.30;99.90
38090;DHT22;23904;52.322;10.232;2023-04-24T05:38:13;12.40;99.90
38090;DHT22;23904;52.322;10.232;2023-04-24T05:40:39;12.40;99.90
38090;DHT22;23904;52.322;10.232;2023-04-24T05:43:05;12.40;99.90
38090;DHT22;23904;52.322;10.232;2023-04-24T05:45:31;12.30;99.90
38090;DHT22;23904;52.322;10.232;2023-04-24T05:47:56;12.30;99.90
38090;DHT22;23904;52.322;10.232;2023-04-24T05:50:22;12.40;99.90
38090;DHT22;23904;52.322;10.232;2023-04-24T05:52:48;12.50;99.90
38090;DHT22;23904;52.322;10.232;2023-04-24T05:55:13;12.60;99.90
38090;DHT22;23904;52.322;10.232;2023-04-24T05:57:39;12.60;99.90
38090;DHT22;23904;52.322;10.232;2023-04-24T06:00:05;12.70;99.90
38090;DHT22;23904;52.322;10.232;2023-04-24T06:02:31;12.60;99.90
38090;DHT22;23904;52.322;10.232;2023-04-24T06:04:58;12.70;99.90
38090;DHT22;23904;52.322;10.232;2023-04-24T06:07:27;12.70;99.90
38090;DHT22;23904;52.322;10.232;2023-04-24T06:09:52;12.70;99.90
38090;DHT22;23904;52.322;10.232;2023-04-24T06:12:18;12.80;99.90
38090;DHT22;23904;52.322;10.232;2023-04-24T06:14:43;12.80;99.90
38090;DHT22;23904;52.322;10.232;2023-04-24T06:17:09;12.90;99.90
38090;DHT22;23904;52.322;10.232;2023-04-24T06:19:34;13.00;99.90
38090;DHT22;23904;52.322;10.232;2023-04-24T06:22:00;13.10;99.90
38090;DHT22;23904;52.322;10.232;2023-04-24T06:24:28;13.10;99.90
38090;DHT22;23904;52.322;10.232;2023-04-24T06:26:54;13.20;99.90
38090;DHT22;23904;52.322;10.232;2023-04-24T06:29:20;13.30;99.90
38090;DHT22;23904;52.322;10.232;2023-04-24T06:31:45;13.20;99.90
38090;DHT22;23904;52.322;10.232;2023-04-24T06:34:11;13.20;99.90
38090;DHT22;23904;52.322;10.232;2023-04-24T06:36:36;13.00;99.90
38090;DHT22;23904;52.322;10.232;2023-04-24T06:39:02;13.00;99.90
38090;DHT22;23904;52.322;10.232;2023-04-24T06:41:28;13.20;99.90
38090;DHT22;23904;52.322;10.232;2023-04-24T06:43:54;13.30;99.90
38090;DHT22;23904;52.322;10.232;2023-04-24T06:46:20;13.40;99.90
38090;DHT22;23904;52.322;10.232;2023-04-24T06:48:48;13.50;99.90
38090;DHT22;23904;52.322;10.232;2023-04-24T06:51:15;13.50;99.90
38090;DHT22;23904;52.322;10.232;2023-04-24T06:53:40;13.50;99.90
38090;DHT22;23904;52.322;10.232;2023-04-24T06:56:06;13.50;99.90
38090;DHT22;23904;52.322;10.232;2023-04-24T06:58:31;13.60;99.90
38090;DHT22;23904;52.322;10.232;2023-04-24T07:00:57;13.70;99.90
38090;DHT22;23904;52.322;10.232;2023-04-24T07:03:23;13.70;99.90
38090;DHT22;23904;52.322;10.232;2023-04-24T07:05:48;13.50;99.90
38090;DHT22;23904;52.322;10.232;2023-04-24T07:08:14;13.10;99.90
38090;DHT22;23904;52.322;10.232;2023-04-24T07:10:42;12.90;99.90
38090;DHT22;23904;52.322;10.232;2023-04-24T07:13:08;12.60;99.90
38090;DHT22;23904;52.322;10.232;2023-04-24T07:15:34;12.40;99.90
38090;DHT22;23904;52.322;10.232;2023-04-24T07:18:00;12.10;99.90
38090;DHT22;23904;52.322;10.232;2023-04-24T07:20:25;12.00;99.90
38090;DHT22;23904;52.322;10.232;2023-04-24T07:22:51;11.90;99.90
38090;DHT22;23904;52.322;10.232;2023-04-24T07:25:19;12.00;99.90
38090;DHT22;23904;52.322;10.232;2023-04-24T07:27:45;12.10;99.90
38090;DHT22;23904;52.322;10.232;2023-04-24T07:30:11;12.20;99.90
38090;DHT22;23904;52.322;10.232;2023-04-24T07:32:37;12.40;99.90
38090;DHT22;23904;52.322;10.232;2023-04-24T07:35:02;12.50;99.90
38090;DHT22;23904;52.322;10.232;2023-04-24T07:37:28;12.60;99.90
38090;DHT22;23904;52.322;10.232;2023-04-24T07:39:54;12.80;99.90
38090;DHT22;23904;52.322;10.232;2023-04-24T07:42:20;12.90;99.90
38090;DHT22;23904;52.322;10.232;2023-04-24T07:44:45;13.00;99.90
38090;DHT22;23904;52.322;10.232;2023-04-24T07:47:13;12.90;99.90
38090;DHT22;23904;52.322;10.232;2023-04-24T07:49:41;13.00;99.90
38090;DHT22;23904;52.322;10.232;2023-04-24T07:52:07;13.30;99.90
38090;DHT22;23904;52.322;10.232;2023-04-24T07:54:33;13.00;99.90
38090;DHT22;23904;52.322;10.232;2023-04-24T07:56:59;13.10;99.90
38090;DHT22;23904;52.322;10.232;2023-04-24T07:59:25;13.40;99.90
38090;DHT22;23904;52.322;10.232;2023-04-24T08:01:51;13.30;99.90
38090;DHT22;23904;52.322;10.232;2023-04-24T08:04:16;13.30;99.90
38090;DHT22;23904;52.322;10.232;2023-04-24T08:06:43;13.10;99.90
38090;DHT22;23904;52.322;10.232;2023-04-24T08:09:09;13.00;99.90
38090;DHT22;23904;52.322;10.232;2023-04-24T08:11:35;13.10;99.90
38090;DHT22;23904;52.322;10.232;2023-04-24T08:14:00;13.10;99.90
38090;DHT22;23904;52.322;10.232;2023-04-24T08:16:26;13.10;99.90
38090;DHT22;23904;52.322;10.232;2023-04-24T08:18:53;13.20;99.90
38090;DHT22;23904;52.322;10.232;2023-04-24T08:21:18;13.40;99.90
38090;DHT22;23904;52.322;10.232;2023-04-24T08:23:45;14.30;99.90
38090;DHT22;23904;52.322;10.232;2023-04-24T08:26:11;14.60;99.90
38090;DHT22;23904;52.322;10.232;2023-04-24T08:28:37;15.10;99.90
38090;DHT22;23904;52.322;10.232;2023-04-24T08:31:03;16.10;99.90
38090;DHT22;23904;52.322;10.232;2023-04-24T08:33:29;17.00;99.00
38090;DHT22;23904;52.322;10.232;2023-04-24T08:36:00;17.30;98.00
38090;DHT22;23904;52.322;10.232;2023-04-24T08:38:27;16.50;99.60
38090;DHT22;23904;52.322;10.232;2023-04-24T08:40:53;15.40;99.90
38090;DHT22;23904;52.322;10.232;2023-04-24T08:43:21;14.70;99.90
38090;DHT22;23904;52.322;10.232;2023-04-24T08:45:48;14.20;99.90
38090;DHT22;23904;52.322;10.232;2023-04-24T08:48:14;14.30;99.90
38090;DHT22;23904;52.322;10.232;2023-04-24T08:50:40;14.80;99.90
38090;DHT22;23904;52.322;10.232;2023-04-24T08:53:08;16.00;99.20
38090;DHT22;23904;52.322;10.232;2023-04-24T08:55:35;16.80;97.50
38090;DHT22;23904;52.322;10.232;2023-04-24T08:58:01;18.20;95.00
38090;DHT22;23904;52.322;10.232;2023-04-24T09:00:28;19.00;91.40
38090;DHT22;23904;52.322;10.232;2023-04-24T09:02:54;19.60;91.20
38090;DHT22;23904;52.322;10.232;2023-04-24T09:05:22;19.80;90.80
38090;DHT22;23904;52.322;10.232;2023-04-24T09:07:56;19.70;89.60
38090;DHT22;23904;52.322;10.232;2023-04-24T09:10:24;19.80;86.40
38090;DHT22;23904;52.322;10.232;2023-04-24T09:12:51;20.10;85.90
38090;DHT22;23904;52.322;10.232;2023-04-24T09:15:18;21.00;80.60
38090;DHT22;23904;52.322;10.232;2023-04-24T09:17:46;21.60;76.10
38090;DHT22;23904;52.322;10.232;2023-04-24T09:20:12;21.30;76.20
38090;DHT22;23904;52.322;10.232;2023-04-24T09:22:38;20.50;76.10
38090;DHT22;23904;52.322;10.232;2023-04-24T09:25:06;19.30;76.90
38090;DHT22;23904;52.322;10.232;2023-04-24T09:27:33;19.00;80.80
38090;DHT22;23904;52.322;10.232;2023-04-24T09:29:59;18.50;83.30
38090;DHT22;23904;52.322;10.232;2023-04-24T09:32:26;17.60;85.80
38090;DHT22;23904;52.322;10.232;2023-04-24T09:37:46;17.10;84.10
38090;DHT22;23904;52.322;10.232;2023-04-24T09:40:13;17.50;82.80
38090;DHT22;23904;52.322;10.232;2023-04-24T09:42:54;17.30;86.30
38090;DHT22;23904;52.322;10.232;2023-04-24T09:45:22;17.30;88.10
38090;DHT22;23904;52.322;10.232;2023-04-24T09:47:51;18.00;86.10
38090;DHT22;23904;52.322;10.232;2023-04-24T09:50:21;18.30;86.40
38090;DHT22;23904;52.322;10.232;2023-04-24T09:52:56;18.40;83.80
38090;DHT22;23904;52.322;10.232;2023-04-24T09:55:23;17.90;83.70
38090;DHT22;23904;52.322;10.232;2023-04-24T09:57:51;17.50;85.60
38090;DHT22;23904;52.322;10.232;2023-04-24T10:00:24;17.00;88.00
38090;DHT22;23904;52.322;10.232;2023-04-24T10:03:05;16.70;90.10
38090;DHT22;23904;52.322;10.232;2023-04-24T10:05:35;16.00;91.00
38090;DHT22;23904;52.322;10.232;2023-04-24T10:08:06;15.40;92.90
38090;DHT22;23904;52.322;10.232;2023-04-24T10:10:41;15.30;92.00
38090;DHT22;23904;52.322;10.232;2023-04-24T10:13:11;16.10;91.00
38090;DHT22;23904;52.322;10.232;2023-04-24T10:15:38;17.30;89.00
38090;DHT22;23904;52.322;10.232;2023-04-24T10:18:06;19.00;84.20
38090;DHT22;23904;52.322;10.232;2023-04-24T10:20:35;19.60;76.40
38090;DHT22;23904;52.322;10.232;2023-04-24T10:23:03;18.20;77.50
38090;DHT22;23904;52.322;10.232;2023-04-24T10:25:30;17.90;80.30
38090;DHT22;23904;52.322;10.232;2023-04-24T10:27:59;17.80;78.70
38090;DHT22;23904;52.322;10.232;2023-04-24T10:30:29;17.80;78.00
38090;DHT22;23904;52.322;10.232;2023-04-24T10:32:59;17.30;80.00
38090;DHT22;23904;52.322;10.232;2023-04-24T10:35:24;16.60;81.00
38090;DHT22;23904;52.322;10.232;2023-04-24T10:37:58;16.20;83.00
38090;DHT22;23904;52.322;10.232;2023-04-24T10:40:31;16.50;85.10
38090;DHT22;23904;52.322;10.232;2023-04-24T10:42:59;16.70;82.40
38090;DHT22;23904;52.322;10.232;2023-04-24T10:45:27;16.40;83.60
38090;DHT22;23904;52.322;10.232;2023-04-24T10:48:01;16.00;85.20
38090;DHT22;23904;52.322;10.232;2023-04-24T10:50:41;15.80;87.10
38090;DHT22;23904;52.322;10.232;2023-04-24T10:53:34;16.00;86.60
38090;DHT22;23904;52.322;10.232;2023-04-24T10:56:05;15.70;85.00
38090;DHT22;23904;52.322;10.232;2023-04-24T10:58:42;15.50;85.50
38090;DHT22;23904;52.322;10.232;2023-04-24T11:01:32;15.60;87.30
38090;DHT22;23904;52.322;10.232;2023-04-24T11:04:00;15.60;88.10
38090;DHT22;23904;52.322;10.232;2023-04-24T11:06:35;15.80;87.90
38090;DHT22;23904;52.322;10.232;2023-04-24T11:09:09;16.30;85.30
38090;DHT22;23904;52.322;10.232;2023-04-24T11:11:38;16.40;85.30
38090;DHT22;23904;52.322;10.232;2023-04-24T11:14:08;16.30;85.00
38090;DHT22;23904;52.322;10.232;2023-04-24T11:16:53;15.80;85.20
38090;DHT22;23904;52.322;10.232;2023-04-24T11:19:24;15.60;86.50
38090;DHT22;23904;52.322;10.232;2023-04-24T11:24:49;17.50;81.70
38090;DHT22;23904;52.322;10.232;2023-04-24T11:27:18;17.40;81.30
38090;DHT22;23904;52.322;10.232;2023-04-24T11:34:58;15.80;85.50
38090;DHT22;23904;52.322;10.232;2023-04-24T11:37:35;15.40;87.40
38090;DHT22;23904;52.322;10.232;2023-04-24T11:40:02;14.80;89.30
38090;DHT22;23904;52.322;10.232;2023-04-24T11:42:33;14.50;91.40
38090;DHT22;23904;52.322;10.232;2023-04-24T11:45:00;14.00;94.20
38090;DHT22;23904;52.322;10.232;2023-04-24T11:47:33;13.80;96.60
38090;DHT22;23904;52.322;10.232;2023-04-24T11:49:59;14.80;97.60
38090;DHT22;23904;52.322;10.232;2023-04-24T11:52:26;16.40;92.60
38090;DHT22;23904;52.322;10.232;2023-04-24T11:54:52;18.90;89.30
38090;DHT22;23904;52.322;10.232;2023-04-24T11:57:22;20.60;78.00
38090;DHT22;23904;52.322;10.232;2023-04-24T11:59:51;21.20;73.10
38090;DHT22;23904;52.322;10.232;2023-04-24T12:02:24;20.00;73.70
38090;DHT22;23904;52.322;10.232;2023-04-24T12:04:51;18.70;76.50
38090;DHT22;23904;52.322;10.232;2023-04-24T12:07:20;17.30;81.60
38090;DHT22;23904;52.322;10.232;2023-04-24T12:09:50;16.40;85.70
38090;DHT22;23904;52.322;10.232;2023-04-24T12:12:23;15.90;90.00
38090;DHT22;23904;52.322;10.232;2023-04-24T12:14:54;15.50;90.20
38090;DHT22;23904;52.322;10.232;2023-04-24T12:17:32;15.20;91.60
38090;DHT22;23904;52.322;10.232;2023-04-24T12:20:01;14.80;94.40
38090;DHT22;23904;52.322;10.232;2023-04-24T12:22:28;14.40;96.40
38090;DHT22;23904;52.322;10.232;2023-04-24T12:25:02;14.20;97.70
38090;DHT22;23904;52.322;10.232;2023-04-24T12:27:31;14.40;96.90
38090;DHT22;23904;52.322;10.232;2023-04-24T12:29:59;14.70;97.00
38090;DHT22;23904;52.322;10.232;2023-04-24T12:32:26;14.70;97.20
38090;DHT22;23904;52.322;10.232;2023-04-24T12:34:52;14.70;95.70
38090;DHT22;23904;52.322;10.232;2023-04-24T12:37:19;14.60;95.80
38090;DHT22;23904;52.322;10.232;2023-04-24T12:40:02;14.70;96.30
38090;DHT22;23904;52.322;10.232;2023-04-24T12:42:32;14.80;94.30
38090;DHT22;23904;52.322;10.232;2023-04-24T12:45:01;14.90;94.50
38090;DHT22;23904;52.322;10.232;2023-04-24T12:47:28;14.90;94.00
38090;DHT22;23904;52.322;10.232;2023-04-24T12:49:54;14.80;94.50
38090;DHT22;23904;52.322;10.232;2023-04-24T12:52:24;14.20;99.30
38090;DHT22;23904;52.322;10.232;2023-04-24T12:54:52;13.90;99.90
38090;DHT22;23904;52.322;10.232;2023-04-24T12:57:19;13.50;99.90
38090;DHT22;23904;52.322;10.232;2023-04-24T12:59:45;13.40;99.90
38090;DHT22;23904;52.322;10.232;2023-04-24T13:02:11;13.10;99.90
38090;DHT22;23904;52.322;10.232;2023-04-24T13:04:38;12.80;99.90
38090;DHT22;23904;52.322;10.232;2023-04-24T13:07:04;12.60;99.90
38090;DHT22;23904;52.322;10.232;2023-04-24T13:09:30;12.30;99.90
38090;DHT22;23904;52.322;10.232;2023-04-24T13:11:56;12.30;99.90
38090;DHT22;23904;52.322;10.232;2023-04-24T13:14:22;12.20;99.90
38090;DHT22;23904;52.322;10.232;2023-04-24T13:16:48;12.20;99.90
38090;DHT22;23904;52.322;10.232;2023-04-24T13:19:14;12.20;99.90
38090;DHT22;23904;52.322;10.232;2023-04-24T13:21:40;12.30;99.90
38090;DHT22;23904;52.322;10.232;2023-04-24T13:24:06;12.40;99.90
38090;DHT22;23904;52.322;10.232;2023-04-24T13:26:33;12.90;99.90
38090;DHT22;23904;52.322;10.232;2023-04-24T13:28:58;12.90;99.90
38090;DHT22;23904;52.322;10.232;2023-04-24T13:31:24;12.90;99.90
38090;DHT22;23904;52.322;10.232;2023-04-24T13:33:50;12.80;99.90
38090;DHT22;23904;52.322;10.232;2023-04-24T13:36:15;13.10;99.90
38090;DHT22;23904;52.322;10.232;2023-04-24T13:38:43;13.00;99.90
38090;DHT22;23904;52.322;10.232;2023-04-24T13:41:10;13.00;99.90
38090;DHT22;23904;52.322;10.232;2023-04-24T13:43:35;12.90;99.90
38090;DHT22;23904;52.322;10.232;2023-04-24T13:46:01;12.60;99.90
38090;DHT22;23904;52.322;10.232;2023-04-24T13:48:28;12.60;99.90
38090;DHT22;23904;52.322;10.232;2023-04-24T13:50:55;12.50;99.90
38090;DHT22;23904;52.322;10.232;2023-04-24T13:53:21;12.30;99.90
38090;DHT22;23904;52.322;10.232;2023-04-24T13:55:46;12.20;99.90
38090;DHT22;23904;52.322;10.232;2023-04-24T13:58:12;12.00;99.90
38090;DHT22;23904;52.322;10.232;2023-04-24T14:00:37;12.00;99.90
38090;DHT22;23904;52.322;10.232;2023-04-24T14:03:03;11.90;99.90
38090;DHT22;23904;52.322;10.232;2023-04-24T14:05:29;12.00;99.90
38090;DHT22;23904;52.322;10.232;2023-04-24T14:07:54;11.90;99.90
38090;DHT22;23904;52.322;10.232;2023-04-24T14:10:20;12.00;99.90
38090;DHT22;23904;52.322;10.232;2023-04-24T14:12:46;12.00;99.90
38090;DHT22;23904;52.322;10.232;2023-04-24T14:15:11;11.90;99.90
38090;DHT22;23904;52.322;10.232;2023-04-24T14:17:38;12.00;99.90
38090;DHT22;23904;52.322;10.232;2023-04-24T14:20:05;12.00;99.90
38090;DHT22;23904;52.322;10.232;2023-04-24T14:22:32;11.80;99.90
38090;DHT22;23904;52.322;10.232;2023-04-24T14:24:58;11.50;99.90
38090;DHT22;23904;52.322;10.232;2023-04-24T14:27:24;11.40;99.90
38090;DHT22;23904;52.322;10.232;2023-04-24T14:29:52;11.30;99.90
38090;DHT22;23904;52.322;10.232;2023-04-24T14:32:18;11.10;99.90
38090;DHT22;23904;52.322;10.232;2023-04-24T14:34:43;10.90;99.90
38090;DHT22;23904;52.322;10.232;2023-04-24T14:37:09;10.70;99.90
38090;DHT22;23904;52.322;10.232;2023-04-24T14:39:36;10.40;99.90
38090;DHT22;23904;52.322;10.232;2023-04-24T14:42:02;10.40;99.90
38090;DHT22;23904;52.322;10.232;2023-04-24T14:44:28;10.40;99.90
38090;DHT22;23904;52.322;10.232;2023-04-24T14:46:54;10.40;99.90
38090;DHT22;23904;52.322;10.232;2023-04-24T14:49:20;10.50;99.90
38090;DHT22;23904;52.322;10.232;2023-04-24T14:51:45;10.40;99.90
38090;DHT22;23904;52.322;10.232;2023-04-24T14:54:11;10.40;99.90
38090;DHT22;23904;52.322;10.232;2023-04-24T14:56:36;10.50;99.90
38090;DHT22;23904;52.322;10.232;2023-04-24T14:59:02;10.40;99.90
38090;DHT22;23904;52.322;10.232;2023-04-24T15:01:28;10.40;99.90
38090;DHT22;23904;52.322;10.232;2023-04-24T15:03:53;10.40;99.90
38090;DHT22;23904;52.322;10.232;2023-04-24T15:06:19;10.20;99.90
38090;DHT22;23904;52.322;10.232;2023-04-24T15:08:45;10.10;99.90
38090;DHT22;23904;52.322;10.232;2023-04-24T15:11:11;10.00;99.90
38090;DHT22;23904;52.322;10.232;2023-04-24T15:13:36;10.20;99.90
38090;DHT22;23904;52.322;10.232;2023-04-24T15:16:02;10.20;99.90
38090;DHT22;23904;52.322;10.232;2023-04-24T15:18:28;10.20;99.90
38090;DHT22;23904;52.322;10.232;2023-04-24T15:20:55;10.20;99.90
38090;DHT22;23904;52.322;10.232;2023-04-24T15:23:21;10.10;99.90
38090;DHT22;23904;52.322;10.232;2023-04-24T15:25:46;10.10;99.90